createdAt,value
2018-06-07T00:03:03.141Z,6.36
2018-06-07T00:08:58.118Z,6.44
2018-06-07T00:14:53.201Z,7.99
2018-06-07T00:20:48.114Z,6.47
2018-06-07T00:26:43.125Z,7.29
2018-06-07T00:32:38.106Z,6.12
2018-06-07T00:38:33.117Z,6.57
2018-06-07T00:44:28.152Z,5.96
2018-06-07T00:50:23.142Z,5.65
2018-06-07T00:56:18.148Z,6.71
2018-06-07T01:02:13.133Z,6.25
2018-06-07T01:08:08.141Z,6.47
2018-06-07T01:14:03.132Z,6.05
2018-06-07T01:19:58.186Z,6
2018-06-07T01:25:53.124Z,6.01
2018-06-07T01:31:48.128Z,6.9
2018-06-07T01:37:43.140Z,6.7
2018-06-07T01:43:38.236Z,5.76
2018-06-07T01:49:33.159Z,5.41
2018-06-07T01:55:28.173Z,6.44
2018-06-07T02:01:23.155Z,5.48
2018-06-07T02:07:18.212Z,6
2018-06-07T02:13:13.194Z,5.44
2018-06-07T02:19:08.224Z,5.93
2018-06-07T02:25:03.184Z,6.37
2018-06-07T02:30:58.177Z,5.63
2018-06-07T02:36:53.250Z,6.07
2018-06-07T02:42:48.208Z,6
2018-06-07T02:48:43.197Z,5.32
2018-06-07T02:54:38.227Z,7
2018-06-07T03:00:33.206Z,5.58
2018-06-07T03:06:28.193Z,5.28
2018-06-07T03:12:23.210Z,5.53
2018-06-07T03:18:18.439Z,5.85
2018-06-07T03:24:13.318Z,5.94
2018-06-07T03:30:08.241Z,6.74
2018-06-07T03:36:03.248Z,5.93
2018-06-07T03:41:58.402Z,6.6
2018-06-07T03:47:53.206Z,7.3
2018-06-07T03:53:48.239Z,5.83
2018-06-07T03:59:43.291Z,5.86
2018-06-07T04:05:38.368Z,5.73
2018-06-07T04:11:33.247Z,5.78
2018-06-07T04:17:28.260Z,5.78
2018-06-07T04:23:23.255Z,5.72
2018-06-07T04:29:18.253Z,6.06
2018-06-07T04:35:13.244Z,7.71
2018-06-07T04:41:08.276Z,7.99
2018-06-07T04:47:03.250Z,7.6
2018-06-07T04:52:58.276Z,8.44
2018-06-07T04:58:53.294Z,9.14
2018-06-07T05:04:48.273Z,9.16
2018-06-07T05:10:43.296Z,9.07
2018-06-07T05:16:38.318Z,11.25
2018-06-07T05:22:33.277Z,9.87
2018-06-07T05:28:28.328Z,9.9
2018-06-07T05:34:23.281Z,9.78
2018-06-07T05:40:18.290Z,8.79
2018-06-07T05:46:13.352Z,8.32
2018-06-07T05:52:08.347Z,10.38
2018-06-07T05:58:03.331Z,9.7
2018-06-07T06:03:58.379Z,9.63
2018-06-07T06:09:53.429Z,9.26
2018-06-07T06:15:48.373Z,9.93
2018-06-07T06:21:43.293Z,9.58
2018-06-07T06:27:38.334Z,8.27
2018-06-07T06:33:33.323Z,9.74
2018-06-07T06:39:28.458Z,10.37
2018-06-07T06:45:23.397Z,10.89
2018-06-07T06:51:18.348Z,10.88
2018-06-07T06:57:13.423Z,13.79
2018-06-07T07:03:08.425Z,18.36
2018-06-07T07:09:03.383Z,14.29
2018-06-07T07:14:58.375Z,16.23
2018-06-07T07:20:53.368Z,15.65
2018-06-07T07:26:48.428Z,13.6
2018-06-07T07:32:43.354Z,13.72
2018-06-07T07:38:38.365Z,13.49
2018-06-07T07:44:33.347Z,13.2
2018-06-07T07:50:28.606Z,17.82
2018-06-07T07:56:23.343Z,12.66
2018-06-07T08:02:18.365Z,12.71
2018-06-07T08:08:13.363Z,11.15
2018-06-07T08:14:08.456Z,11.17
2018-06-07T08:20:03.950Z,10.31
2018-06-07T08:25:58.410Z,11.48
2018-06-07T08:31:53.411Z,8.83
2018-06-07T08:37:48.432Z,9.59
2018-06-07T08:43:43.426Z,8.9
2018-06-07T08:49:38.428Z,8.16
2018-06-07T08:55:33.430Z,7.68
2018-06-07T09:01:28.849Z,11.21
2018-06-07T09:07:23.399Z,8.6
2018-06-07T09:13:18.401Z,7.41
2018-06-07T09:19:13.425Z,7.64
2018-06-07T09:25:08.441Z,7.37
2018-06-07T09:31:03.438Z,7.51
2018-06-07T09:36:58.605Z,6.75
2018-06-07T09:42:53.415Z,6.55
2018-06-07T09:48:48.653Z,5.94
2018-06-07T09:54:43.473Z,5.46
2018-06-07T10:00:38.545Z,4.7
2018-06-07T10:06:33.902Z,4.71
2018-06-07T10:12:28.475Z,5.53
2018-06-07T10:18:23.833Z,5.59
2018-06-07T10:24:18.478Z,4.94
2018-06-07T10:30:13.458Z,4.53
2018-06-07T10:36:08.448Z,4.2
2018-06-07T10:42:03.449Z,4.5
2018-06-07T10:47:58.569Z,4.69
2018-06-07T10:53:53.563Z,4.98
2018-06-07T10:59:48.572Z,4.29
2018-06-07T11:05:50.648Z,4.82
2018-06-07T11:11:38.508Z,4.5
2018-06-07T11:17:33.463Z,4.4
2018-06-07T11:23:28.494Z,4.32
2018-06-07T11:29:23.488Z,4.5
2018-06-07T11:35:18.564Z,4.36
2018-06-07T11:41:13.537Z,6.72
2018-06-07T11:47:08.486Z,5.59
2018-06-07T11:53:03.499Z,8.49
2018-06-07T11:58:58.513Z,5.44
2018-06-07T12:04:53.561Z,4.86
2018-06-07T12:10:48.536Z,5.54
2018-06-07T12:16:43.527Z,7.23
2018-06-07T12:22:38.647Z,11.78
2018-06-07T12:28:33.494Z,7.41
2018-06-07T12:34:28.704Z,5.06
2018-06-07T12:40:23.689Z,5.74
2018-06-07T12:46:18.562Z,6.87
2018-06-07T12:52:13.562Z,5.72
2018-06-07T12:58:08.532Z,7.24
2018-06-07T13:04:03.646Z,6.36
2018-06-07T13:09:58.624Z,5.86
2018-06-07T13:15:53.541Z,6.08
2018-06-07T13:21:48.565Z,4.86
2018-06-07T13:27:43.546Z,5.8
2018-06-07T13:33:38.539Z,5.88
2018-06-07T13:39:33.578Z,12.34
2018-06-07T13:45:28.585Z,11.61
2018-06-07T13:51:23.547Z,22.02
2018-06-07T13:57:18.595Z,13.31
2018-06-07T14:03:17.984Z,19.71
2018-06-07T14:09:08.588Z,10.9
2018-06-07T14:15:03.567Z,8.91
2018-06-07T14:20:58.616Z,15.8
2018-06-07T14:26:53.568Z,9.96
2018-06-07T14:32:48.610Z,19.44
2018-06-07T14:38:43.710Z,17.54
2018-06-07T14:44:39.149Z,6.8
2018-06-07T14:50:33.674Z,8.65
2018-06-07T14:56:28.586Z,14.6
2018-06-07T15:02:23.628Z,12.21
2018-06-07T15:08:19.920Z,11.8
2018-06-07T15:14:14.300Z,12.22
2018-06-07T15:20:08.744Z,11.46
2018-06-07T15:26:04.199Z,9.91
2018-06-07T15:31:58.708Z,7.4
2018-06-07T15:37:53.649Z,6.81
2018-06-07T15:43:50.519Z,8.12
2018-06-07T15:49:43.645Z,9.19
2018-06-07T15:55:38.616Z,7.99
2018-06-07T16:01:33.636Z,5.32
2018-06-07T16:07:28.643Z,8.85
2018-06-07T16:13:23.745Z,6.49
2018-06-07T16:19:18.674Z,6.11
2018-06-07T16:25:14.678Z,9.23
2018-06-07T16:31:08.671Z,4.64
2018-06-07T16:37:03.797Z,5.34
2018-06-07T16:42:58.689Z,5.43
2018-06-07T16:48:53.711Z,6.43
2018-06-07T16:54:48.744Z,5.98
2018-06-07T17:00:43.733Z,7.89
2018-06-07T17:06:38.768Z,7.91
2018-06-07T17:12:33.711Z,7.27
2018-06-07T17:18:28.685Z,7.24
2018-06-07T17:24:23.721Z,6.32
2018-06-07T17:30:18.982Z,7.09
2018-06-07T17:36:13.675Z,6.75
2018-06-07T17:42:08.716Z,6.75
2018-06-07T17:48:03.726Z,7.71
2018-06-07T17:53:58.746Z,5.35
2018-06-07T17:59:53.720Z,6.33
2018-06-07T18:05:48.743Z,6.94
2018-06-07T18:11:43.738Z,6.53
2018-06-07T18:17:38.726Z,7.54
2018-06-07T18:23:33.775Z,7.92
2018-06-07T18:29:28.763Z,5.69
2018-06-07T18:35:23.809Z,5.69
2018-06-07T18:41:18.743Z,5.53
2018-06-07T18:47:13.745Z,5.32
2018-06-07T18:53:08.795Z,6.82
2018-06-07T18:59:03.834Z,6.04
2018-06-07T19:04:58.965Z,4.48
2018-06-07T19:10:53.732Z,5.23
2018-06-07T19:16:48.775Z,4.56
2018-06-07T19:22:43.821Z,7.33
2018-06-07T19:28:38.780Z,5.8
2018-06-07T19:34:33.786Z,4.95
2018-06-07T19:40:28.795Z,6.02
2018-06-07T19:46:23.801Z,5.13
2018-06-07T19:52:18.756Z,5.92
2018-06-07T19:58:13.808Z,5.4
2018-06-07T20:04:08.777Z,5.72
2018-06-07T20:10:04.234Z,5.53
2018-06-07T20:15:58.765Z,4.91
2018-06-07T20:21:53.833Z,5.62
2018-06-07T20:27:48.781Z,5.91
2018-06-07T20:33:43.847Z,5.14
2018-06-07T20:39:38.793Z,5.25
2018-06-07T20:45:33.852Z,5.16
2018-06-07T20:51:28.920Z,5.4
2018-06-07T20:57:23.854Z,5.51
2018-06-07T21:03:18.909Z,4.93
2018-06-07T21:09:13.889Z,6.34
2018-06-07T21:15:09.323Z,7.66
2018-06-07T21:21:03.945Z,5.33
2018-06-07T21:26:58.960Z,6.68
2018-06-07T21:32:53.838Z,6.79
2018-06-07T21:38:48.809Z,7.13
2018-06-07T21:44:43.861Z,6.14
2018-06-07T21:50:38.828Z,5.46
2018-06-07T21:56:33.841Z,5.74
2018-06-07T22:02:28.907Z,8.6
2018-06-07T22:08:23.871Z,6.53
2018-06-07T22:14:18.865Z,7.12
2018-06-07T22:20:13.853Z,6.26
2018-06-07T22:26:08.884Z,6.54
2018-06-07T22:32:04.180Z,6.53
2018-06-07T22:37:58.839Z,7.17
2018-06-07T22:43:53.902Z,6.82
2018-06-07T22:49:48.930Z,6.79
2018-06-07T22:55:43.930Z,6.77
2018-06-07T23:01:39.040Z,6.9
2018-06-07T23:07:33.959Z,7.77
2018-06-07T23:13:28.886Z,6.38
2018-06-07T23:19:23.887Z,5.94
2018-06-07T23:25:19.442Z,7.35
2018-06-07T23:31:13.887Z,6.44
2018-06-07T23:37:08.913Z,5.54
2018-06-07T23:43:03.883Z,4.54
2018-06-07T23:48:58.949Z,5.82
2018-06-07T23:54:53.916Z,4.78
